logo
Search for airport 
image banner adimage banner adimage banner ad
image banner ad

CKZ5 - Keizers Air Park

Located in Meteghan, Canada

ICAO - , IATA -

Data provided by Airmate  

General information

Coordinates: N44°10'21" W66°9'45"
Elevation is 134 feet MSL.
Magnetic variation is -16.3333° East
View others Airports in Nova Scotia

Operational data

Special qualification required
Current time UTC:
Current local time:
Weather at : CYQI - Yarmouth ( 39 km )
TAF: TAF CYQI 222341Z 2300/2312 28010KT P6SM FEW250 BECMG 2304/2306 VRB03KT FM230900 09005KT P6SM SKC RMK NXT FCST BY 230600Z
View NOTAMs / SUP AIP / TFR affecting this airport [VIEW]
Communications frequencies: [VIEW]

Runways:

RWY identifierQFULength (ft)Width (ft)SurfaceLDA (ft)
16100028GRAVE
34100028GRAVE

Airport contact information

Address: Meteghan Canada

Satellite view of CKZ5